createdAt,value
2022-11-07T00:03:33.608Z,98717.47
2022-11-07T00:09:36.222Z,98724.25
2022-11-07T00:15:38.144Z,98724.69
2022-11-07T00:21:41.666Z,98721.00
2022-11-07T00:27:43.690Z,98722.84
2022-11-07T00:33:46.493Z,98732.09
2022-11-07T00:39:48.374Z,98734.75
2022-11-07T00:45:50.792Z,98750.63
2022-11-07T00:51:52.686Z,98742.78
2022-11-07T00:57:55.528Z,98751.66
2022-11-07T01:04:28.917Z,98758.81
2022-11-07T01:10:32.538Z,98758.16
2022-11-07T01:16:36.128Z,98753.47
2022-11-07T01:22:38.201Z,98744.38
2022-11-07T01:28:40.680Z,98734.31
2022-11-07T01:34:42.762Z,98744.84
2022-11-07T01:41:04.844Z,98744.47
2022-11-07T01:47:07.547Z,98756.38
2022-11-07T01:53:09.794Z,98754.53
2022-11-07T01:59:19.446Z,98750.41
2022-11-07T02:06:09.335Z,98750.84
2022-11-07T02:12:12.232Z,98752.66
2022-11-07T02:32:18.085Z,98757.22
2022-11-07T02:44:40.197Z,98750.81
2022-11-07T02:50:47.969Z,98748.94
2022-11-07T02:56:50.114Z,98748.53
2022-11-07T03:02:52.287Z,98759.44
2022-11-07T03:08:54.307Z,98747.25
2022-11-07T03:14:56.339Z,98747.63
2022-11-07T03:20:58.235Z,98747.63
2022-11-07T03:27:09.763Z,98755.44
2022-11-07T03:33:12.150Z,98761.00
2022-11-07T03:39:14.456Z,98771.13
2022-11-07T03:45:17.049Z,98771.53
2022-11-07T03:51:19.761Z,98772.94
2022-11-07T03:57:24.121Z,98780.75
2022-11-07T04:03:26.101Z,98784.66
2022-11-07T04:09:28.064Z,98788.03
2022-11-07T04:15:51.348Z,98804.13
2022-11-07T04:21:53.361Z,98790.25
2022-11-07T04:27:55.236Z,98783.28
2022-11-07T04:33:57.194Z,98794.22
2022-11-07T04:40:00.067Z,98803.88
2022-11-07T04:46:07.545Z,98802.44
2022-11-07T04:53:07.173Z,98818.53
2022-11-07T04:59:09.227Z,98820.50
2022-11-07T05:05:12.038Z,98807.72
2022-11-07T05:11:13.943Z,98808.19
2022-11-07T05:17:16.997Z,98810.47
2022-11-07T05:23:20.285Z,98807.66
2022-11-07T05:29:22.448Z,98816.69
2022-11-07T05:35:24.510Z,98804.28
2022-11-07T05:55:05.680Z,98805.63
2022-11-07T06:01:08.777Z,98814.06
2022-11-07T06:07:10.899Z,98815.28
2022-11-07T06:13:17.139Z,98810.97
2022-11-07T06:19:21.904Z,98816.72
2022-11-07T06:25:39.287Z,98824.06
2022-11-07T06:31:41.612Z,98839.31
2022-11-07T06:38:19.056Z,98852.75
2022-11-07T06:44:21.033Z,98855.44
2022-11-07T06:50:23.874Z,98860.16
2022-11-07T06:56:26.113Z,98865.09
2022-11-07T07:02:56.366Z,98871.00
2022-11-07T07:08:50.209Z,98868.84
2022-11-07T07:14:52.218Z,98875.63
2022-11-07T07:21:06.626Z,98883.84
2022-11-07T07:27:08.567Z,98880.69
2022-11-07T07:33:10.640Z,98881.75
2022-11-07T07:39:12.533Z,98878.13
2022-11-07T07:45:16.078Z,98875.19
2022-11-07T07:51:18.142Z,98875.94
2022-11-07T07:57:20.113Z,98896.72
2022-11-07T08:03:22.017Z,98888.00
2022-11-07T08:09:23.982Z,98885.72
2022-11-07T08:15:26.165Z,98877.97
2022-11-07T08:21:28.091Z,98875.69
2022-11-07T08:27:30.438Z,98886.84
2022-11-07T08:33:33.062Z,98882.78
2022-11-07T08:39:41.028Z,98895.19
2022-11-07T08:45:43.257Z,98892.75
2022-11-07T08:51:45.112Z,98892.28
2022-11-07T08:57:47.139Z,98891.09
2022-11-07T09:03:56.432Z,98889.19
2022-11-07T09:10:00.057Z,98898.91
2022-11-07T09:16:04.602Z,98891.22
2022-11-07T09:22:06.834Z,98890.25
2022-11-07T09:28:10.113Z,98884.91
2022-11-07T09:34:12.204Z,98885.44
2022-11-07T09:40:26.522Z,98898.03
2022-11-07T09:47:01.167Z,98893.44
2022-11-07T09:53:42.249Z,98892.94
2022-11-07T10:00:15.792Z,98900.72
2022-11-07T10:07:09.328Z,98892.41
2022-11-07T10:20:35.118Z,98900.38
2022-11-07T10:33:13.746Z,98908.81
2022-11-07T10:39:19.318Z,98908.75
2022-11-07T10:45:22.570Z,98924.53
2022-11-07T10:51:43.929Z,98916.00
2022-11-07T10:58:14.893Z,98922.53
2022-11-07T11:04:30.336Z,98917.59
2022-11-07T11:10:39.302Z,98917.38
2022-11-07T11:16:43.268Z,98925.03
2022-11-07T11:22:45.417Z,98920.91
2022-11-07T11:29:09.099Z,98913.41
2022-11-07T11:35:31.758Z,98922.94
2022-11-07T11:41:52.286Z,98914.25
2022-11-07T11:48:11.104Z,98921.97
2022-11-07T11:54:16.827Z,98922.53
2022-11-07T12:00:22.711Z,98905.44
2022-11-07T12:06:36.465Z,98904.94
2022-11-07T12:12:59.365Z,98913.50
2022-11-07T12:19:48.467Z,98898.81
2022-11-07T12:32:41.986Z,98911.97
2022-11-07T12:39:01.433Z,98894.56
2022-11-07T12:45:33.891Z,98894.66
2022-11-07T12:52:01.229Z,98904.16
2022-11-07T12:58:29.371Z,98905.63
2022-11-07T13:04:53.083Z,98912.66
2022-11-07T13:17:30.593Z,98911.44
2022-11-07T13:23:33.210Z,98911.41
2022-11-07T13:29:38.416Z,98915.06
2022-11-07T13:35:57.291Z,98917.97
2022-11-07T13:42:01.364Z,98927.22
2022-11-07T13:48:13.181Z,98932.59
2022-11-07T13:54:56.183Z,98929.91
2022-11-07T14:01:13.594Z,98928.72
2022-11-07T14:07:15.759Z,98938.66
2022-11-07T14:13:23.011Z,98938.78
2022-11-07T14:19:27.331Z,98948.16
2022-11-07T14:25:35.664Z,98945.91
2022-11-07T14:31:38.298Z,98944.09
2022-11-07T14:44:05.506Z,98948.44
2022-11-07T14:50:30.899Z,98940.44
2022-11-07T15:04:25.267Z,98950.00
2022-11-07T15:10:39.677Z,98947.72
2022-11-07T15:16:51.599Z,98954.69
2022-11-07T15:22:53.589Z,98955.88
2022-11-07T15:29:21.205Z,98953.81
2022-11-07T15:35:42.935Z,98954.19
2022-11-07T15:41:45.115Z,98954.31
2022-11-07T15:47:48.317Z,98967.94
2022-11-07T15:53:50.450Z,98961.06
2022-11-07T15:59:52.500Z,98963.34
2022-11-07T16:06:01.598Z,98963.53
2022-11-07T16:12:03.799Z,98956.63
2022-11-07T16:18:06.104Z,98961.81
2022-11-07T16:24:18.709Z,98957.22
2022-11-07T16:30:21.647Z,98973.94
2022-11-07T16:37:12.887Z,98980.31
2022-11-07T16:43:17.379Z,98977.41
2022-11-07T16:49:32.754Z,98986.28
2022-11-07T16:56:00.184Z,98987.44
2022-11-07T17:02:05.483Z,98983.56
2022-11-07T17:08:37.433Z,98989.28
2022-11-07T17:14:39.432Z,98992.31
2022-11-07T17:20:50.997Z,98993.50
2022-11-07T17:26:53.701Z,99005.66
2022-11-07T17:32:55.716Z,98995.72
2022-11-07T17:39:05.065Z,99003.81
2022-11-07T17:45:07.948Z,99008.28
2022-11-07T17:51:10.981Z,99010.38
2022-11-07T17:57:13.003Z,99014.75
2022-11-07T18:03:32.966Z,99009.56
2022-11-07T18:09:35.357Z,99010.25
2022-11-07T18:22:24.022Z,99014.84
2022-11-07T18:28:28.033Z,99013.44
2022-11-07T18:34:30.575Z,99024.03
2022-11-07T18:40:32.553Z,99022.53
2022-11-07T18:46:34.491Z,99027.88
2022-11-07T18:52:36.651Z,99032.34
2022-11-07T18:58:44.359Z,99025.09
2022-11-07T19:04:49.931Z,99023.34
2022-11-07T19:17:01.091Z,99029.66
2022-11-07T19:23:03.007Z,99023.09
2022-11-07T19:29:05.817Z,99024.13
2022-11-07T19:35:08.389Z,99035.44
2022-11-07T19:41:11.705Z,99037.50
2022-11-07T19:47:14.228Z,99035.22
2022-11-07T19:53:16.809Z,99036.25
2022-11-07T19:59:18.931Z,99045.56
2022-11-07T20:05:27.771Z,99045.28
2022-11-07T20:11:29.822Z,99046.53
2022-11-07T20:17:31.841Z,99050.56
2022-11-07T20:23:34.145Z,99061.78
2022-11-07T20:29:36.844Z,99059.03
2022-11-07T20:35:42.394Z,99062.69
2022-11-07T20:41:44.377Z,99053.78
2022-11-07T20:47:52.035Z,99052.75
2022-11-07T20:53:55.878Z,99050.50
2022-11-07T20:59:58.031Z,99049.69
2022-11-07T21:06:01.078Z,99054.59
2022-11-07T21:12:03.203Z,99047.25
2022-11-07T21:18:05.406Z,99056.88
2022-11-07T21:24:08.144Z,99048.94
2022-11-07T21:30:10.589Z,99066.56
2022-11-07T21:36:22.078Z,99055.22
2022-11-07T21:50:23.850Z,99060.91
2022-11-07T21:56:31.968Z,99060.00
2022-11-07T22:02:34.675Z,99053.47
2022-11-07T22:08:39.892Z,99048.41
2022-11-07T22:14:42.921Z,99032.59
2022-11-07T22:20:44.846Z,99040.28
2022-11-07T22:26:46.846Z,99048.44
2022-11-07T22:32:51.992Z,99045.69
2022-11-07T22:38:55.611Z,99048.97
2022-11-07T22:44:57.578Z,99038.47
2022-11-07T22:51:12.223Z,99041.25
2022-11-07T22:57:17.863Z,99032.34
2022-11-07T23:03:20.195Z,99032.19
2022-11-07T23:09:22.450Z,99029.53
2022-11-07T23:15:33.909Z,99031.69
2022-11-07T23:21:36.871Z,99036.47
2022-11-07T23:27:38.811Z,99046.91
2022-11-07T23:33:41.310Z,99037.47
2022-11-07T23:39:43.335Z,99029.31
2022-11-07T23:46:04.108Z,99045.47
2022-11-07T23:52:06.498Z,99052.94
2022-11-07T23:58:26.749Z,99049.84
